createdAt,value
2022-11-03T00:00:03.253Z,94.00
2022-11-03T00:02:33.207Z,94.10
2022-11-03T00:05:22.992Z,94.10
2022-11-03T00:07:52.905Z,94.10
2022-11-03T00:10:22.940Z,94.20
2022-11-03T00:12:52.496Z,94.20
2022-11-03T00:15:22.183Z,94.20
2022-11-03T00:17:51.766Z,94.30
2022-11-03T00:20:21.298Z,94.30
2022-11-03T00:22:50.840Z,94.30
2022-11-03T00:25:20.406Z,94.30
2022-11-03T00:27:57.652Z,94.30
2022-11-03T00:30:27.208Z,94.30
2022-11-03T00:32:56.750Z,94.40
2022-11-03T00:35:26.345Z,94.50
2022-11-03T00:37:55.950Z,94.50
2022-11-03T00:40:25.476Z,94.30
2022-11-03T00:42:55.017Z,94.50
2022-11-03T00:45:24.637Z,94.40
2022-11-03T00:48:18.187Z,94.50
2022-11-03T00:50:47.690Z,94.50
2022-11-03T00:53:17.279Z,94.50
2022-11-03T00:55:52.066Z,94.60
2022-11-03T00:58:21.703Z,94.50
2022-11-03T01:00:51.325Z,94.60
2022-11-03T01:03:20.929Z,94.50
2022-11-03T01:06:10.412Z,94.50
2022-11-03T01:08:40.153Z,94.60
2022-11-03T01:11:38.936Z,94.60
2022-11-03T01:14:09.074Z,94.50
2022-11-03T01:16:38.906Z,94.60
2022-11-03T01:19:08.839Z,94.60
2022-11-03T01:21:38.941Z,94.60
2022-11-03T01:24:08.696Z,94.60
2022-11-03T01:26:38.256Z,94.60
2022-11-03T01:29:07.807Z,94.50
2022-11-03T01:31:37.455Z,94.50
2022-11-03T01:34:07.101Z,94.50
2022-11-03T01:36:36.575Z,94.50
2022-11-03T01:39:06.091Z,94.40
2022-11-03T01:41:35.632Z,94.30
2022-11-03T01:44:29.032Z,94.30
2022-11-03T01:47:17.821Z,94.20
2022-11-03T01:50:09.277Z,94.20
2022-11-03T01:52:52.265Z,94.10
2022-11-03T01:55:26.699Z,94.00
2022-11-03T01:58:04.367Z,93.90
2022-11-03T02:00:34.188Z,93.80
2022-11-03T02:03:04.420Z,93.90
2022-11-03T02:05:34.844Z,93.80
2022-11-03T02:08:12.818Z,93.80
2022-11-03T02:10:42.752Z,93.70
2022-11-03T02:13:20.696Z,93.50
2022-11-03T02:15:53.284Z,93.40
2022-11-03T02:18:28.828Z,93.30
2022-11-03T02:21:37.498Z,93.20
2022-11-03T02:24:20.658Z,93.10
2022-11-03T02:26:52.658Z,93.00
2022-11-03T02:29:22.414Z,93.00
2022-11-03T02:32:05.324Z,92.90
2022-11-03T02:34:52.496Z,92.80
2022-11-03T02:37:29.473Z,92.80
2022-11-03T02:40:09.638Z,92.70
2022-11-03T02:42:42.610Z,92.40
2022-11-03T02:45:17.481Z,92.20
2022-11-03T02:47:48.456Z,91.80
2022-11-03T02:50:18.422Z,91.50
2022-11-03T02:52:54.223Z,91.00
2022-11-03T02:55:47.833Z,91.00
2022-11-03T02:58:43.242Z,90.10
2022-11-03T03:01:20.470Z,89.60
2022-11-03T03:04:01.619Z,89.60
2022-11-03T03:06:44.303Z,89.40
2022-11-03T03:09:24.406Z,88.90
2022-11-03T03:11:57.040Z,88.10
2022-11-03T03:14:38.755Z,87.70
2022-11-03T03:17:31.180Z,87.70
2022-11-03T03:20:31.243Z,87.60
2022-11-03T03:23:23.135Z,85.00
2022-11-03T03:26:13.862Z,83.70
2022-11-03T03:28:57.490Z,82.30
2022-11-03T03:31:30.327Z,81.60
2022-11-03T03:34:04.825Z,79.50
2022-11-03T03:36:43.675Z,80.40
2022-11-03T03:39:16.784Z,79.50
2022-11-03T03:41:49.463Z,79.80
2022-11-03T03:44:19.741Z,79.80
2022-11-03T03:46:57.358Z,77.70
2022-11-03T03:49:27.466Z,77.20
2022-11-03T03:51:57.354Z,78.30
2022-11-03T03:54:27.246Z,78.40
2022-11-03T03:57:04.958Z,75.40
2022-11-03T03:59:35.090Z,75.50
2022-11-03T04:02:05.027Z,75.80
2022-11-03T04:04:35.265Z,76.80
2022-11-03T04:07:24.931Z,77.00
2022-11-03T04:09:55.063Z,74.70
2022-11-03T04:12:44.586Z,72.50
2022-11-03T04:15:35.586Z,73.50
2022-11-03T04:18:24.787Z,72.70
2022-11-03T04:21:14.063Z,71.50
2022-11-03T04:23:43.629Z,72.70
2022-11-03T04:26:16.920Z,73.30
2022-11-03T04:28:47.572Z,73.60
2022-11-03T04:31:19.526Z,71.80
2022-11-03T04:33:50.181Z,72.50
2022-11-03T04:36:24.676Z,70.30
2022-11-03T04:38:55.041Z,69.40
2022-11-03T04:41:31.558Z,70.20
2022-11-03T04:44:01.248Z,70.30
2022-11-03T04:46:32.083Z,70.10
2022-11-03T04:49:03.941Z,70.20
2022-11-03T04:51:36.860Z,70.40
2022-11-03T04:54:18.139Z,70.40
2022-11-03T04:56:47.687Z,70.30
2022-11-03T04:59:19.137Z,70.10
2022-11-03T05:01:49.223Z,70.30
2022-11-03T05:04:21.292Z,70.10
2022-11-03T05:06:55.845Z,70.40
2022-11-03T05:09:32.215Z,69.90
2022-11-03T05:12:01.818Z,67.60
2022-11-03T05:14:32.882Z,65.10
2022-11-03T05:17:04.503Z,65.70
2022-11-03T05:19:37.354Z,66.20
2022-11-03T05:22:07.832Z,66.70
2022-11-03T05:24:39.633Z,66.90
2022-11-03T05:27:18.391Z,67.20
2022-11-03T05:29:49.960Z,67.40
2022-11-03T05:32:27.990Z,67.40
2022-11-03T05:34:58.139Z,66.40
2022-11-03T05:37:37.347Z,65.10
2022-11-03T05:40:19.412Z,65.80
2022-11-03T05:42:51.846Z,66.10
2022-11-03T05:45:34.701Z,66.30
2022-11-03T05:48:14.009Z,66.40
2022-11-03T05:50:45.930Z,66.60
2022-11-03T05:53:33.651Z,66.80
2022-11-03T05:56:07.747Z,63.90
2022-11-03T05:58:41.030Z,63.90
2022-11-03T06:01:22.724Z,64.20
2022-11-03T06:03:53.877Z,64.80
2022-11-03T06:06:32.596Z,62.70
2022-11-03T06:09:11.272Z,62.60
2022-11-03T06:11:41.555Z,62.90
2022-11-03T06:14:24.354Z,63.50
2022-11-03T06:17:02.052Z,63.80
2022-11-03T06:19:44.221Z,64.10
2022-11-03T06:22:36.556Z,64.40
2022-11-03T06:25:34.769Z,62.30
2022-11-03T06:28:22.472Z,62.70
2022-11-03T06:30:52.359Z,63.30
2022-11-03T06:33:26.848Z,63.40
2022-11-03T06:36:06.828Z,63.80
2022-11-03T06:38:37.471Z,64.30
2022-11-03T06:41:07.103Z,64.40
2022-11-03T06:43:44.181Z,64.60
2022-11-03T06:46:34.891Z,64.60
2022-11-03T06:49:07.365Z,64.50
2022-11-03T06:51:38.620Z,62.50
2022-11-03T06:54:11.733Z,60.00
2022-11-03T06:56:41.246Z,61.00
2022-11-03T06:59:16.033Z,61.00
2022-11-03T07:01:47.976Z,61.80
2022-11-03T07:04:23.609Z,62.00
2022-11-03T07:06:53.922Z,62.50
2022-11-03T07:09:28.237Z,62.60
2022-11-03T07:12:02.760Z,63.00
2022-11-03T07:14:34.858Z,63.00
2022-11-03T07:17:08.741Z,62.80
2022-11-03T07:19:44.490Z,62.90
2022-11-03T07:22:24.668Z,62.90
2022-11-03T07:25:01.762Z,63.10
2022-11-03T07:27:40.299Z,63.20
2022-11-03T07:30:23.583Z,63.30
2022-11-03T07:32:59.550Z,63.30
2022-11-03T07:36:13.147Z,63.40
2022-11-03T07:38:32.601Z,64.00
2022-11-03T07:41:02.649Z,62.90
2022-11-03T07:43:37.446Z,62.10
2022-11-03T07:46:08.091Z,61.80
2022-11-03T07:48:47.920Z,60.70
2022-11-03T07:51:35.831Z,61.20
2022-11-03T07:54:14.422Z,61.60
2022-11-03T07:56:48.508Z,62.00
2022-11-03T08:01:58.015Z,62.60
2022-11-03T08:04:31.342Z,62.70
2022-11-03T08:07:00.997Z,62.30
2022-11-03T08:09:30.753Z,61.90
2022-11-03T08:12:00.348Z,62.20
2022-11-03T08:14:30.131Z,62.40
2022-11-03T08:16:59.703Z,62.70
2022-11-03T08:19:29.309Z,62.90
2022-11-03T08:21:59.356Z,63.10
2022-11-03T08:24:28.858Z,62.80
2022-11-03T08:26:58.460Z,62.50
2022-11-03T08:29:29.326Z,62.00
2022-11-03T08:31:58.939Z,61.90
2022-11-03T08:34:28.463Z,62.20
2022-11-03T08:36:58.158Z,62.20
2022-11-03T08:39:28.304Z,62.10
2022-11-03T08:41:57.870Z,62.10
2022-11-03T08:44:27.392Z,61.80
2022-11-03T08:46:57.077Z,61.90
2022-11-03T08:49:26.613Z,61.80
2022-11-03T08:51:56.188Z,61.50
2022-11-03T08:54:25.761Z,61.60
2022-11-03T08:56:55.300Z,61.60
2022-11-03T08:59:24.767Z,61.80
2022-11-03T09:01:54.421Z,62.10
2022-11-03T09:04:25.001Z,61.90
2022-11-03T09:06:54.916Z,61.90
2022-11-03T09:12:14.596Z,62.20
2022-11-03T09:14:44.567Z,62.00
2022-11-03T09:17:14.496Z,62.40
2022-11-03T09:19:44.379Z,62.40
2022-11-03T09:22:14.264Z,62.40
2022-11-03T09:24:44.507Z,62.10
2022-11-03T09:27:14.367Z,62.20
2022-11-03T09:30:11.009Z,61.90
2022-11-03T09:32:34.738Z,61.10
2022-11-03T09:35:04.652Z,60.90
2022-11-03T09:37:34.489Z,60.80
2022-11-03T09:40:04.509Z,61.30
2022-11-03T09:42:36.166Z,61.80
2022-11-03T09:45:06.482Z,62.00
2022-11-03T09:47:41.769Z,62.10
2022-11-03T09:50:21.271Z,62.30
2022-11-03T09:52:54.078Z,62.50
2022-11-03T09:55:29.318Z,62.70
2022-11-03T09:58:11.281Z,62.90
2022-11-03T10:00:41.271Z,63.10
2022-11-03T10:03:19.921Z,63.30
2022-11-03T10:05:50.800Z,63.60
2022-11-03T10:08:29.727Z,63.70
2022-11-03T10:11:00.384Z,64.00
2022-11-03T10:13:42.096Z,64.30
2022-11-03T10:16:15.674Z,64.60
2022-11-03T10:18:45.490Z,64.90
2022-11-03T10:21:29.183Z,65.10
2022-11-03T10:23:58.783Z,65.40
2022-11-03T10:26:29.143Z,65.70
2022-11-03T10:29:10.550Z,65.90
2022-11-03T10:31:47.023Z,66.10
2022-11-03T10:34:40.886Z,66.30
2022-11-03T10:37:27.974Z,66.70
2022-11-03T10:40:00.499Z,67.00
2022-11-03T10:42:35.288Z,67.30
2022-11-03T10:45:24.875Z,67.70
2022-11-03T10:48:12.212Z,68.20
2022-11-03T10:50:45.316Z,68.50
2022-11-03T10:53:20.115Z,68.80
2022-11-03T10:55:49.891Z,69.00
2022-11-03T10:58:19.608Z,70.10
2022-11-03T11:00:49.233Z,70.20
2022-11-03T11:03:20.767Z,70.70
2022-11-03T11:05:54.495Z,71.30
2022-11-03T11:08:26.181Z,72.20
2022-11-03T11:10:56.882Z,72.70
2022-11-03T11:13:29.090Z,73.10
2022-11-03T11:16:02.268Z,73.40
2022-11-03T11:19:02.870Z,73.50
2022-11-03T11:22:11.637Z,74.00
2022-11-03T11:25:00.183Z,74.40
2022-11-03T11:27:58.610Z,74.40
2022-11-03T11:31:27.207Z,74.60
2022-11-03T11:34:35.938Z,74.90
2022-11-03T11:37:40.663Z,75.00
2022-11-03T11:40:16.053Z,75.40
2022-11-03T11:43:23.261Z,75.70
2022-11-03T11:46:31.887Z,76.30
2022-11-03T11:49:22.209Z,76.70
2022-11-03T11:51:52.221Z,77.10
2022-11-03T11:54:23.228Z,77.70
2022-11-03T11:56:53.272Z,77.90
2022-11-03T11:59:26.246Z,78.00
2022-11-03T12:02:01.978Z,78.30
2022-11-03T12:04:34.891Z,78.90
2022-11-03T12:07:04.990Z,79.50
2022-11-03T12:09:35.238Z,79.70
2022-11-03T12:12:08.908Z,80.10
2022-11-03T12:14:40.740Z,80.00
2022-11-03T12:17:34.689Z,80.30
2022-11-03T12:20:43.375Z,80.90
2022-11-03T12:23:12.948Z,80.90
2022-11-03T12:25:42.553Z,81.50
2022-11-03T12:28:12.207Z,81.80
2022-11-03T12:30:41.695Z,82.10
2022-11-03T12:33:14.233Z,82.30
2022-11-03T12:35:43.781Z,82.50
2022-11-03T12:38:13.264Z,82.90
2022-11-03T12:40:42.858Z,82.90
2022-11-03T12:43:12.402Z,82.90
2022-11-03T12:45:45.982Z,83.30
2022-11-03T12:48:15.634Z,83.50
2022-11-03T12:50:45.243Z,83.60
2022-11-03T12:53:14.793Z,83.70
2022-11-03T12:55:44.931Z,83.70
2022-11-03T12:58:14.685Z,83.90
2022-11-03T13:00:49.866Z,84.20
2022-11-03T13:03:23.441Z,84.10
2022-11-03T13:05:53.605Z,84.40
2022-11-03T13:08:23.226Z,84.70
2022-11-03T13:10:53.339Z,84.70
2022-11-03T13:13:23.037Z,84.80
2022-11-03T13:15:55.638Z,84.90
2022-11-03T13:18:25.311Z,84.90
2022-11-03T13:20:54.897Z,85.30
2022-11-03T13:23:24.458Z,85.50
2022-11-03T13:25:54.269Z,85.60
2022-11-03T13:28:23.997Z,85.70
2022-11-03T13:30:53.559Z,85.80
2022-11-03T13:33:23.154Z,85.80
2022-11-03T13:35:52.874Z,86.00
2022-11-03T13:38:22.974Z,86.20
2022-11-03T13:40:57.195Z,86.50
2022-11-03T13:43:27.573Z,86.70
2022-11-03T13:46:00.271Z,86.80
2022-11-03T13:51:20.613Z,86.90
2022-11-03T13:59:32.306Z,87.00
2022-11-03T14:04:51.985Z,87.20
2022-11-03T14:07:22.510Z,87.20
2022-11-03T14:09:52.116Z,87.40
2022-11-03T14:12:41.234Z,87.40
2022-11-03T14:15:13.609Z,87.60
2022-11-03T14:17:43.330Z,87.70
2022-11-03T14:20:15.103Z,87.70
2022-11-03T14:22:45.089Z,87.80
2022-11-03T14:25:14.659Z,88.10
2022-11-03T14:27:45.279Z,88.00
2022-11-03T14:30:18.651Z,88.30
2022-11-03T14:32:49.585Z,88.10
2022-11-03T14:35:19.255Z,88.40
2022-11-03T14:37:48.785Z,88.30
2022-11-03T14:40:38.050Z,88.30
2022-11-03T14:43:07.968Z,88.50
2022-11-03T14:45:39.940Z,88.60
2022-11-03T14:48:12.149Z,88.60
2022-11-03T14:50:41.688Z,88.70
2022-11-03T14:53:11.275Z,88.80
2022-11-03T14:55:40.787Z,88.70
2022-11-03T14:58:10.346Z,88.90
2022-11-03T15:00:39.984Z,88.90
2022-11-03T15:03:09.581Z,88.90
2022-11-03T15:05:45.780Z,89.00
2022-11-03T15:08:17.559Z,89.00
2022-11-03T15:10:47.248Z,89.10
2022-11-03T15:13:16.805Z,89.10
2022-11-03T15:15:47.165Z,89.10
2022-11-03T15:18:16.830Z,89.20
2022-11-03T15:20:47.687Z,89.30
2022-11-03T15:26:06.818Z,89.30
2022-11-03T15:28:36.410Z,89.30
2022-11-03T15:31:06.170Z,89.40
2022-11-03T15:33:35.772Z,89.40
2022-11-03T15:36:07.296Z,89.60
2022-11-03T15:38:37.081Z,89.40
2022-11-03T15:41:26.510Z,89.60
2022-11-03T15:43:56.020Z,89.50
2022-11-03T15:46:26.120Z,89.80
2022-11-03T15:48:58.176Z,89.60
2022-11-03T15:51:27.745Z,89.80
2022-11-03T15:53:59.172Z,89.70
2022-11-03T15:56:32.192Z,89.90
2022-11-03T15:59:02.002Z,89.80
2022-11-03T16:01:31.637Z,89.90
2022-11-03T16:04:01.782Z,90.00
2022-11-03T16:07:01.681Z,90.10
2022-11-03T16:09:22.524Z,90.10
2022-11-03T16:11:52.375Z,90.10
2022-11-03T16:14:22.261Z,90.10
2022-11-03T16:16:52.318Z,90.20
2022-11-03T16:19:22.210Z,90.10
2022-11-03T16:21:53.341Z,90.20
2022-11-03T16:24:24.839Z,90.20
2022-11-03T16:26:59.588Z,90.20
2022-11-03T16:29:29.822Z,90.30
2022-11-03T16:31:59.660Z,90.30
2022-11-03T16:34:29.704Z,90.30
2022-11-03T16:36:59.635Z,90.30
2022-11-03T16:39:29.457Z,90.40
2022-11-03T16:41:59.431Z,90.30
2022-11-03T16:44:29.305Z,90.40
2022-11-03T16:46:59.170Z,90.60
2022-11-03T16:49:29.093Z,90.50
2022-11-03T16:51:59.134Z,90.50
2022-11-03T16:54:29.043Z,90.60
2022-11-03T16:56:59.200Z,90.60
2022-11-03T16:59:29.178Z,90.60
2022-11-03T17:01:59.231Z,90.60
2022-11-03T17:04:29.093Z,90.70
2022-11-03T17:07:00.666Z,90.60
2022-11-03T17:09:30.764Z,90.60
2022-11-03T17:12:00.653Z,90.50
2022-11-03T17:14:30.587Z,90.70
2022-11-03T17:17:00.745Z,90.70
2022-11-03T17:19:30.943Z,90.80
2022-11-03T17:22:00.787Z,90.90
2022-11-03T17:24:30.679Z,90.90
2022-11-03T17:27:24.539Z,90.90
2022-11-03T17:30:02.669Z,91.00
2022-11-03T17:32:35.878Z,91.10
2022-11-03T17:35:08.671Z,91.40
2022-11-03T17:37:38.593Z,91.30
2022-11-03T17:40:17.021Z,91.20
2022-11-03T17:42:46.990Z,91.20
2022-11-03T17:45:18.598Z,91.30
2022-11-03T17:47:49.917Z,91.30
2022-11-03T17:50:22.944Z,91.30
2022-11-03T17:52:54.445Z,91.30
2022-11-03T17:55:29.637Z,91.30
2022-11-03T17:58:03.516Z,91.30
2022-11-03T18:00:33.796Z,91.30
2022-11-03T18:03:03.796Z,91.30
2022-11-03T18:05:34.873Z,91.40
2022-11-03T18:08:11.626Z,91.40
2022-11-03T18:10:45.052Z,91.40
2022-11-03T18:13:34.223Z,91.50
2022-11-03T18:16:10.705Z,91.40
2022-11-03T18:18:46.130Z,91.40
2022-11-03T18:21:20.631Z,91.40
2022-11-03T18:23:50.473Z,91.50
2022-11-03T18:26:23.325Z,91.40
2022-11-03T18:28:54.199Z,91.50
2022-11-03T18:31:36.062Z,91.50
2022-11-03T18:34:15.898Z,91.50
2022-11-03T18:36:46.290Z,91.60
2022-11-03T18:39:23.784Z,91.60
2022-11-03T18:41:54.249Z,91.60
2022-11-03T18:44:32.431Z,91.70
2022-11-03T18:47:01.661Z,91.70
2022-11-03T18:49:34.688Z,91.90
2022-11-03T18:52:06.896Z,91.80
2022-11-03T18:54:37.509Z,91.70
2022-11-03T18:57:07.433Z,91.70
2022-11-03T18:59:40.186Z,91.80
2022-11-03T19:02:22.498Z,91.80
2022-11-03T19:04:53.293Z,91.80
2022-11-03T19:07:37.416Z,91.90
2022-11-03T19:10:09.814Z,91.80
2022-11-03T19:12:41.398Z,91.80
2022-11-03T19:15:24.420Z,91.80
2022-11-03T19:17:58.426Z,91.80
2022-11-03T19:20:28.521Z,91.90
2022-11-03T19:22:58.413Z,91.90
2022-11-03T19:25:28.323Z,91.90
2022-11-03T19:27:58.298Z,91.90
2022-11-03T19:30:28.158Z,91.90
2022-11-03T19:32:59.616Z,92.00
2022-11-03T19:35:37.245Z,91.90
2022-11-03T19:38:13.073Z,91.90
2022-11-03T19:41:03.569Z,91.90
2022-11-03T19:43:35.025Z,91.90
2022-11-03T19:46:06.307Z,91.90
2022-11-03T19:48:37.224Z,92.00
2022-11-03T19:51:08.632Z,92.00
2022-11-03T19:53:43.194Z,92.00
2022-11-03T19:56:18.360Z,91.90
2022-11-03T19:58:48.205Z,91.90
2022-11-03T20:01:18.150Z,91.90
2022-11-03T20:03:48.142Z,91.90
2022-11-03T20:06:19.571Z,91.90
2022-11-03T20:08:49.566Z,92.00
2022-11-03T20:11:19.632Z,92.00
2022-11-03T20:13:49.712Z,92.00
2022-11-03T20:16:22.674Z,92.00
2022-11-03T20:18:54.051Z,92.00
2022-11-03T20:21:26.874Z,92.10
2022-11-03T20:23:58.739Z,92.00
2022-11-03T20:26:30.241Z,92.10
2022-11-03T20:29:04.440Z,92.00
2022-11-03T20:31:35.045Z,92.00
2022-11-03T20:34:05.453Z,92.10
2022-11-03T20:36:35.426Z,92.20
2022-11-03T20:39:06.066Z,92.10
2022-11-03T20:41:36.402Z,92.10
2022-11-03T20:44:06.396Z,92.20
2022-11-03T20:46:36.516Z,92.20
2022-11-03T20:49:06.556Z,92.30
2022-11-03T20:51:46.720Z,92.30
2022-11-03T20:54:21.932Z,92.30
2022-11-03T20:56:52.535Z,92.30
2022-11-03T20:59:26.391Z,92.30
2022-11-03T21:01:56.349Z,92.30
2022-11-03T21:04:27.194Z,92.40
2022-11-03T21:06:57.871Z,92.40
2022-11-03T21:09:27.662Z,92.30
2022-11-03T21:11:57.567Z,92.30
2022-11-03T21:14:30.045Z,92.30
2022-11-03T21:17:20.135Z,92.30
2022-11-03T21:20:09.577Z,92.30
2022-11-03T21:22:53.676Z,92.40
2022-11-03T21:25:25.645Z,92.40
2022-11-03T21:27:57.636Z,92.40
2022-11-03T21:30:27.521Z,92.40
2022-11-03T21:32:59.074Z,92.30
2022-11-03T21:35:28.935Z,92.40
2022-11-03T21:38:00.405Z,92.40
2022-11-03T21:40:30.701Z,92.40
2022-11-03T21:43:20.313Z,92.40
2022-11-03T21:45:50.283Z,92.40
2022-11-03T21:48:39.721Z,92.40
2022-11-03T21:51:09.490Z,92.50
2022-11-03T21:53:39.327Z,92.50
2022-11-03T21:56:15.429Z,92.50
2022-11-03T21:58:46.345Z,92.50
2022-11-03T22:01:16.744Z,92.40
2022-11-03T22:03:46.709Z,92.40
2022-11-03T22:06:17.135Z,92.40
2022-11-03T22:08:47.419Z,92.40
2022-11-03T22:11:23.263Z,92.40
2022-11-03T22:14:03.363Z,92.40
2022-11-03T22:16:39.344Z,92.40
2022-11-03T22:19:44.774Z,92.50
2022-11-03T22:22:36.441Z,92.50
2022-11-03T22:25:26.428Z,92.50
2022-11-03T22:27:57.488Z,92.50
2022-11-03T22:30:46.874Z,92.60
2022-11-03T22:33:17.076Z,92.60
2022-11-03T22:36:06.530Z,92.50
2022-11-03T22:38:55.921Z,92.50
2022-11-03T22:41:46.989Z,92.60
2022-11-03T22:44:36.475Z,92.60
2022-11-03T22:47:08.325Z,92.70
2022-11-03T22:49:38.647Z,92.70
2022-11-03T22:52:08.453Z,92.70
2022-11-03T22:54:38.326Z,92.70
2022-11-03T22:57:09.357Z,92.70
2022-11-03T22:59:40.243Z,92.70
2022-11-03T23:02:10.197Z,92.60
2022-11-03T23:04:40.621Z,92.60
2022-11-03T23:07:10.411Z,92.60
2022-11-03T23:09:40.260Z,92.70
2022-11-03T23:12:10.289Z,92.80
2022-11-03T23:15:00.022Z,92.80
2022-11-03T23:17:50.244Z,92.90
2022-11-03T23:20:39.681Z,93.00
2022-11-03T23:23:29.250Z,93.00
2022-11-03T23:25:59.418Z,93.10
2022-11-03T23:28:29.361Z,93.10
2022-11-03T23:30:59.214Z,93.10
2022-11-03T23:33:29.161Z,93.10
2022-11-03T23:35:58.984Z,93.10
2022-11-03T23:38:28.769Z,93.00
2022-11-03T23:41:03.968Z,93.00
2022-11-03T23:43:34.259Z,93.10
2022-11-03T23:46:23.918Z,93.10
2022-11-03T23:48:55.433Z,93.10
2022-11-03T23:51:27.711Z,93.20
2022-11-03T23:54:00.437Z,93.20
2022-11-03T23:56:53.158Z,93.20
2022-11-03T23:59:24.594Z,93.30
